Time;durP1;ratioP1;P1;durP2;ratioP2;P2;SDS_P1;SDS_P2;PMS_P1;PMS_P2;Temp;Humidity;BMP_temperature;BMP_pressure;BME280_temperature;BME280_humidity;BME280_pressure;Samples;Min_cycle;Max_cycle;Signal;HPM_P1;HPM_P2
2023/05/30 00:00:45;;;;;;;11.63;2.20;;;11.40;99.90;;;;;;7324709;32;20423;-54
2023/05/30 00:04:46;;;;;;;7.50;1.70;;;11.40;99.90;;;;;;7331753;32;20234;-54
2023/05/30 00:08:48;;;;;;;8.52;1.77;;;11.20;99.90;;;;;;7331015;32;20153;-54
2023/05/30 00:12:50;;;;;;;9.35;1.87;;;11.20;99.90;;;;;;7323497;32;20254;-54
2023/05/30 00:16:52;;;;;;;10.65;1.87;;;11.10;99.90;;;;;;7326361;32;20103;-54
2023/05/30 00:20:55;;;;;;;12.25;2.58;;;11.00;99.90;;;;;;7325740;32;20118;-54
2023/05/30 00:24:59;;;;;;;7.85;1.85;;;10.90;99.90;;;;;;7319763;32;20540;-54
2023/05/30 00:29:01;;;;;;;10.60;2.10;;;10.80;99.90;;;;;;7334412;32;20608;-54
2023/05/30 00:33:03;;;;;;;13.00;2.28;;;10.70;99.90;;;;;;7327893;32;20101;-54
2023/05/30 00:37:06;;;;;;;8.93;1.55;;;10.70;99.90;;;;;;7330459;32;20172;-55
2023/05/30 00:41:07;;;;;;;5.90;1.27;;;10.60;99.90;;;;;;7327224;32;20248;-54
2023/05/30 00:45:09;;;;;;;11.25;2.10;;;10.40;99.90;;;;;;7325688;32;20291;-54
2023/05/30 00:49:11;;;;;;;8.35;1.80;;;10.30;99.90;;;;;;7321887;32;20250;-54
2023/05/30 00:53:14;;;;;;;11.25;2.25;;;10.30;99.90;;;;;;7327965;32;20111;-54
2023/05/30 00:57:16;;;;;;;10.75;1.73;;;10.00;99.90;;;;;;7322665;32;20139;-55
2023/05/30 01:01:20;;;;;;;11.00;2.15;;;9.90;99.90;;;;;;7331877;32;20652;-55
2023/05/30 01:05:24;;;;;;;10.70;1.90;;;9.80;99.90;;;;;;7328720;32;20191;-55
2023/05/30 01:09:27;;;;;;;9.75;1.90;;;9.70;99.90;;;;;;7310603;32;20229;-54
2023/05/30 01:13:38;;;;;;;11.57;2.08;;;9.60;99.90;;;;;;7332861;32;20104;-54
2023/05/30 01:17:55;;;;;;;9.77;2.30;;;9.50;99.90;;;;;;7327219;32;20584;-54
2023/05/30 01:22:21;;;;;;;11.52;2.00;;;9.40;99.90;;;;;;7318307;32;20114;-54
2023/05/30 01:26:23;;;;;;;10.25;2.15;;;9.30;99.90;;;;;;7329896;32;20719;-54
2023/05/30 01:30:27;;;;;;;13.40;2.35;;;9.20;99.90;;;;;;7331355;32;20565;-54
2023/05/30 01:34:29;;;;;;;10.73;2.05;;;9.10;99.90;;;;;;7315107;32;20186;-54
2023/05/30 01:38:31;;;;;;;12.55;2.50;;;9.10;99.90;;;;;;7331977;32;20218;-54
2023/05/30 01:42:34;;;;;;;10.38;1.98;;;9.00;99.90;;;;;;7328250;32;20130;-54
2023/05/30 01:46:45;;;;;;;10.65;2.30;;;9.00;99.90;;;;;;7332217;32;20442;-53
2023/05/30 01:50:50;;;;;;;12.00;2.22;;;8.90;99.90;;;;;;7328832;32;20147;-54
2023/05/30 01:54:58;;;;;;;12.25;2.30;;;8.80;99.90;;;;;;7328923;32;20149;-54
2023/05/30 01:59:02;;;;;;;9.75;1.87;;;8.70;99.90;;;;;;7326046;32;20193;-54
2023/05/30 02:03:03;;;;;;;11.52;2.05;;;8.70;99.90;;;;;;7326762;32;20525;-54
2023/05/30 02:07:05;;;;;;;11.55;2.42;;;8.60;99.90;;;;;;7326137;32;20099;-54
2023/05/30 02:11:07;;;;;;;9.43;1.80;;;8.60;99.90;;;;;;7321701;32;20198;-53
2023/05/30 02:15:11;;;;;;;14.25;2.12;;;8.60;99.90;;;;;;7331669;32;20148;-54
2023/05/30 02:19:14;;;;;;;9.48;2.37;;;8.60;99.90;;;;;;7334585;32;20175;-54
2023/05/30 02:23:16;;;;;;;9.95;1.90;;;8.60;99.90;;;;;;7332397;32;20384;-54
2023/05/30 02:27:18;;;;;;;12.68;2.12;;;8.60;99.90;;;;;;7315428;32;20237;-54
2023/05/30 02:31:19;;;;;;;8.68;1.70;;;8.40;99.90;;;;;;7327765;32;20169;-55
2023/05/30 02:35:21;;;;;;;8.05;1.90;;;8.30;99.90;;;;;;7329782;32;20580;-54
2023/05/30 02:39:24;;;;;;;13.50;2.37;;;8.20;99.90;;;;;;7333413;32;20115;-56
2023/05/30 02:43:26;;;;;;;8.85;2.08;;;8.10;99.90;;;;;;7317650;32;20118;-54
2023/05/30 02:47:28;;;;;;;10.55;2.33;;;7.90;99.90;;;;;;7328690;32;20619;-54
2023/05/30 02:51:31;;;;;;;10.68;2.00;;;7.90;99.90;;;;;;7330514;32;20146;-54
2023/05/30 02:55:33;;;;;;;8.68;2.28;;;7.80;99.90;;;;;;7299514;32;20133;-54
2023/05/30 02:59:34;;;;;;;11.48;1.75;;;7.70;99.90;;;;;;7327395;32;20135;-54
2023/05/30 03:03:37;;;;;;;9.18;1.83;;;7.60;99.90;;;;;;7328589;32;20107;-53
2023/05/30 03:07:39;;;;;;;9.18;1.48;;;7.60;99.90;;;;;;7332207;32;20132;-53
2023/05/30 03:11:42;;;;;;;6.07;1.75;;;7.60;99.90;;;;;;7324576;32;20226;-54
2023/05/30 03:15:44;;;;;;;6.03;2.12;;;7.50;99.90;;;;;;7332621;32;20139;-54
2023/05/30 03:19:46;;;;;;;8.43;2.17;;;7.40;99.90;;;;;;7327356;32;20124;-55
2023/05/30 03:23:49;;;;;;;9.85;2.28;;;7.40;99.90;;;;;;7328544;32;20207;-54
2023/05/30 03:27:51;;;;;;;12.32;2.12;;;7.30;99.90;;;;;;7327510;32;20700;-54
2023/05/30 03:31:52;;;;;;;10.55;2.42;;;7.30;99.90;;;;;;7307806;32;20257;-54
2023/05/30 03:35:54;;;;;;;13.77;2.40;;;7.40;99.90;;;;;;7330243;32;20131;-53
2023/05/30 03:39:56;;;;;;;14.87;3.00;;;7.40;99.90;;;;;;7329828;32;20520;-54
2023/05/30 03:43:58;;;;;;;15.18;2.47;;;7.40;99.90;;;;;;7315826;32;20258;-54
2023/05/30 03:48:00;;;;;;;10.85;2.80;;;7.50;99.90;;;;;;7329516;32;20126;-55
2023/05/30 03:52:02;;;;;;;15.32;2.83;;;7.60;99.90;;;;;;7317853;32;20126;-54
2023/05/30 03:56:04;;;;;;;13.57;3.33;;;7.80;99.90;;;;;;7325262;32;20292;-55
2023/05/30 04:00:06;;;;;;;14.10;3.95;;;7.90;99.90;;;;;;7328545;32;20102;-54
2023/05/30 04:04:08;;;;;;;19.87;3.85;;;8.00;99.90;;;;;;7331396;32;20144;-55
2023/05/30 04:08:10;;;;;;;21.08;5.50;;;8.10;99.90;;;;;;7314983;32;20237;-54
2023/05/30 04:12:12;;;;;;;21.20;6.30;;;8.30;99.90;;;;;;7325698;32;20146;-54
2023/05/30 04:16:13;;;;;;;18.42;6.65;;;8.40;99.90;;;;;;7325843;32;20849;-54
2023/05/30 04:20:16;;;;;;;16.08;6.70;;;8.60;99.90;;;;;;7328793;32;20129;-55
2023/05/30 04:24:18;;;;;;;19.85;6.93;;;8.70;99.90;;;;;;7328803;32;20213;-54
2023/05/30 04:28:21;;;;;;;20.40;6.85;;;8.90;99.90;;;;;;7325819;32;20149;-54
2023/05/30 04:32:23;;;;;;;23.42;6.95;;;9.00;99.90;;;;;;7323164;32;20381;-57
2023/05/30 04:36:27;;;;;;;21.73;6.85;;;9.10;99.90;;;;;;7324467;32;20104;-58
2023/05/30 04:40:28;;;;;;;17.70;7.47;;;9.30;99.90;;;;;;7327184;32;20222;-55
2023/05/30 04:44:37;;;;;;;17.65;7.68;;;9.50;99.90;;;;;;7326526;32;20129;-55
2023/05/30 04:48:39;;;;;;;19.58;7.75;;;9.70;99.90;;;;;;7329618;32;20374;-55
2023/05/30 04:52:44;;;;;;;17.73;6.95;;;9.90;99.90;;;;;;7333693;32;20138;-55
2023/05/30 04:56:46;;;;;;;18.45;7.43;;;10.00;99.90;;;;;;7324392;32;20152;-55
2023/05/30 05:00:48;;;;;;;20.58;7.25;;;10.20;99.90;;;;;;7320448;32;20127;-55
2023/05/30 05:04:50;;;;;;;17.85;7.07;;;10.60;99.90;;;;;;7323166;32;20122;-56
2023/05/30 05:08:52;;;;;;;16.45;7.32;;;10.70;99.90;;;;;;7322317;32;20615;-56
2023/05/30 05:12:53;;;;;;;18.30;6.80;;;10.70;99.90;;;;;;7326456;32;20573;-55
2023/05/30 05:16:57;;;;;;;17.58;6.40;;;10.90;99.90;;;;;;7329846;32;20604;-55
2023/05/30 05:20:58;;;;;;;23.40;7.95;;;11.30;99.90;;;;;;7309197;32;20238;-56
2023/05/30 05:25:02;;;;;;;20.90;9.32;;;11.30;99.90;;;;;;7304207;32;20168;-56
2023/05/30 05:29:03;;;;;;;19.77;9.45;;;11.30;99.90;;;;;;7319796;32;20250;-55
2023/05/30 05:33:05;;;;;;;21.27;8.60;;;11.50;99.90;;;;;;7328509;32;20222;-55
2023/05/30 05:37:07;;;;;;;18.77;7.60;;;11.30;99.90;;;;;;7314083;32;20590;-54
2023/05/30 05:41:09;;;;;;;19.25;8.00;;;11.70;99.90;;;;;;7318295;32;20261;-55
2023/05/30 05:45:11;;;;;;;14.80;6.55;;;12.00;99.90;;;;;;7327092;32;20282;-55
2023/05/30 05:49:13;;;;;;;19.67;6.75;;;12.10;99.90;;;;;;7327179;32;20104;-56
2023/05/30 05:53:14;;;;;;;20.27;6.43;;;12.40;99.90;;;;;;7327514;32;20111;-56
2023/05/30 05:57:16;;;;;;;20.23;7.05;;;12.70;99.90;;;;;;7327014;32;20728;-57
2023/05/30 06:01:18;;;;;;;15.35;7.57;;;12.60;99.90;;;;;;7333311;32;20222;-57
2023/05/30 06:05:20;;;;;;;14.87;6.50;;;12.10;99.90;;;;;;7325257;32;20104;-57
2023/05/30 06:09:24;;;;;;;20.20;7.37;;;13.10;99.90;;;;;;7327840;32;20115;-58
2023/05/30 06:13:26;;;;;;;21.62;7.45;;;13.00;99.90;;;;;;7320111;32;20204;-59
2023/05/30 06:17:28;;;;;;;17.95;7.37;;;12.90;99.90;;;;;;7330905;32;20131;-59
2023/05/30 06:21:30;;;;;;;17.23;7.30;;;13.20;99.90;;;;;;7334924;32;20247;-59
2023/05/30 06:25:32;;;;;;;16.85;7.35;;;13.40;99.90;;;;;;7331961;32;20232;-58
2023/05/30 06:29:35;;;;;;;14.90;6.12;;;13.10;99.90;;;;;;7329511;32;20126;-58
2023/05/30 06:33:37;;;;;;;15.85;6.72;;;13.50;99.90;;;;;;7329958;32;20103;-59
2023/05/30 06:37:38;;;;;;;18.75;6.12;;;13.60;99.90;;;;;;7325351;32;20217;-58
2023/05/30 06:41:42;;;;;;;20.12;6.40;;;13.90;99.90;;;;;;7326365;32;20182;-58
2023/05/30 06:45:44;;;;;;;11.10;5.32;;;14.20;99.90;;;;;;7327894;32;20169;-59
2023/05/30 06:49:46;;;;;;;14.52;6.18;;;14.50;99.90;;;;;;7338707;32;20826;-59
2023/05/30 06:53:48;;;;;;;22.70;6.10;;;14.40;99.90;;;;;;7322766;32;20142;-59
2023/05/30 06:57:56;;;;;;;17.98;5.55;;;13.50;99.90;;;;;;7327085;32;20573;-59
2023/05/30 07:01:57;;;;;;;13.82;6.40;;;14.70;99.90;;;;;;7320982;32;20122;-58
2023/05/30 07:06:00;;;;;;;18.05;6.32;;;14.20;99.90;;;;;;7327323;32;20607;-58
2023/05/30 07:10:02;;;;;;;15.80;5.85;;;13.30;99.90;;;;;;7327840;32;20540;-58
2023/05/30 07:14:04;;;;;;;22.27;6.12;;;13.40;99.90;;;;;;7325385;32;20113;-58
2023/05/30 07:18:06;;;;;;;16.98;5.60;;;13.80;99.90;;;;;;7328500;32;20479;-57
2023/05/30 07:22:08;;;;;;;14.43;5.70;;;13.40;99.90;;;;;;7327236;32;20545;-58
2023/05/30 07:26:10;;;;;;;15.10;4.57;;;13.60;99.90;;;;;;7325020;32;20123;-58
2023/05/30 07:30:12;;;;;;;16.35;4.90;;;14.30;99.90;;;;;;7313121;32;20470;-58
2023/05/30 07:34:14;;;;;;;12.95;4.90;;;14.40;99.90;;;;;;7330214;32;20126;-59
2023/05/30 07:38:15;;;;;;;14.55;5.00;;;14.70;99.90;;;;;;7331400;32;20528;-59
2023/05/30 07:42:17;;;;;;;12.35;5.37;;;14.70;99.90;;;;;;7334869;32;20229;-58
2023/05/30 07:46:20;;;;;;;19.48;6.45;;;14.70;99.90;;;;;;7324300;32;20247;-57
2023/05/30 07:50:22;;;;;;;14.20;5.80;;;14.10;99.90;;;;;;7321507;32;20119;-59
2023/05/30 07:54:23;;;;;;;15.30;5.57;;;14.50;99.90;;;;;;7322558;32;20253;-59
2023/05/30 07:58:25;;;;;;;15.68;6.35;;;14.40;99.90;;;;;;7310307;32;20236;-59
2023/05/30 08:02:27;;;;;;;13.25;6.25;;;13.90;99.90;;;;;;7328412;32;20139;-58
2023/05/30 08:06:31;;;;;;;16.73;5.57;;;14.10;99.90;;;;;;7320416;32;20116;-57
2023/05/30 08:10:33;;;;;;;19.25;5.65;;;14.40;99.90;;;;;;7331930;32;20459;-56
2023/05/30 08:14:35;;;;;;;11.73;5.12;;;15.00;99.90;;;;;;7322479;32;20222;-57
2023/05/30 08:18:39;;;;;;;15.07;5.85;;;15.30;99.90;;;;;;7329975;32;20808;-57
2023/05/30 08:22:41;;;;;;;10.52;5.68;;;15.40;99.90;;;;;;7323931;32;20213;-57
2023/05/30 08:26:44;;;;;;;14.55;5.53;;;14.80;99.90;;;;;;7324971;32;20139;-57
2023/05/30 08:30:48;;;;;;;14.13;5.15;;;15.30;99.90;;;;;;7330072;32;20162;-57
2023/05/30 08:34:50;;;;;;;18.90;4.78;;;15.60;99.90;;;;;;7327982;32;20183;-56
2023/05/30 08:38:54;;;;;;;10.60;4.70;;;15.90;99.90;;;;;;7326150;32;20099;-56
2023/05/30 08:43:14;;;;;;;19.35;5.57;;;16.20;99.90;;;;;;7325341;32;20291;-57
2023/05/30 08:47:16;;;;;;;11.88;4.72;;;16.30;99.90;;;;;;7330059;32;20195;-57
2023/05/30 08:51:22;;;;;;;11.38;4.35;;;16.40;99.90;;;;;;7328162;32;20182;-57
2023/05/30 08:55:31;;;;;;;10.52;4.30;;;17.70;99.90;;;;;;7323240;32;20116;-57
2023/05/30 08:59:33;;;;;;;13.48;4.75;;;17.60;99.90;;;;;;7324766;32;20203;-57
2023/05/30 09:03:37;;;;;;;11.00;5.10;;;17.60;99.90;;;;;;7314776;32;20183;-57
2023/05/30 09:07:41;;;;;;;10.40;4.15;;;17.10;99.90;;;;;;7314605;32;20540;-57
2023/05/30 09:11:43;;;;;;;14.60;5.10;;;17.60;99.90;;;;;;7316964;32;20300;-58
2023/05/30 09:15:45;;;;;;;13.40;4.60;;;17.40;99.90;;;;;;7315461;32;20271;-57
2023/05/30 09:19:47;;;;;;;12.18;4.70;;;18.80;99.90;;;;;;7318225;32;20129;-57
2023/05/30 09:23:50;;;;;;;13.93;4.65;;;19.30;99.90;;;;;;7318915;32;20394;-57
2023/05/30 09:27:52;;;;;;;10.20;4.57;;;18.60;99.90;;;;;;7315167;32;20201;-57
2023/05/30 09:31:55;;;;;;;10.70;3.80;;;18.80;99.80;;;;;;7319694;32;20666;-57
2023/05/30 09:35:57;;;;;;;10.20;3.75;;;19.40;99.90;;;;;;7319083;32;20107;-57
2023/05/30 09:40:17;;;;;;;9.80;3.90;;;19.20;97.70;;;;;;7321056;32;20206;-57
2023/05/30 09:44:19;;;;;;;15.30;4.05;;;18.70;97.10;;;;;;7322183;32;20800;-57
2023/05/30 09:48:21;;;;;;;11.48;4.30;;;18.80;99.90;;;;;;7324924;32;20563;-57
2023/05/30 09:52:24;;;;;;;14.95;4.32;;;18.60;99.30;;;;;;7323347;32;20205;-58
2023/05/30 09:56:36;;;;;;;9.52;3.90;;;19.80;99.50;;;;;;7323077;32;20352;-57
2023/05/30 10:00:49;;;;;;;11.48;3.87;;;20.10;96.70;;;;;;7330540;32;20226;-57
2023/05/30 10:04:51;;;;;;;12.65;4.93;;;18.50;97.80;;;;;;7333726;32;20131;-57
2023/05/30 10:08:53;;;;;;;13.30;5.00;;;18.00;98.40;;;;;;7325139;32;20183;-57
2023/05/30 10:12:57;;;;;;;17.30;4.60;;;18.40;99.60;;;;;;7319494;32;20783;-57
2023/05/30 10:17:09;;;;;;;12.68;5.10;;;18.00;98.40;;;;;;7316846;32;20195;-57
2023/05/30 10:21:14;;;;;;;7.85;4.43;;;17.70;99.00;;;;;;7330062;32;20216;-58
2023/05/30 10:25:17;;;;;;;14.40;4.78;;;18.40;99.90;;;;;;7334313;32;20442;-57
2023/05/30 10:29:21;;;;;;;12.25;4.62;;;18.80;96.70;;;;;;7336182;32;20213;-58
2023/05/30 10:33:26;;;;;;;11.43;4.90;;;18.40;98.80;;;;;;7325183;32;20125;-58
2023/05/30 10:37:49;;;;;;;10.18;5.28;;;19.10;97.70;;;;;;7329615;32;20149;-57
2023/05/30 10:42:00;;;;;;;14.68;4.05;;;18.80;96.60;;;;;;7318836;32;20165;-57
2023/05/30 10:46:16;;;;;;;12.20;4.60;;;18.20;96.00;;;;;;7324784;32;20206;-57
2023/05/30 10:50:25;;;;;;;13.52;4.75;;;18.90;97.10;;;;;;7332467;32;20139;-58
2023/05/30 10:54:32;;;;;;;13.62;5.18;;;19.60;95.20;;;;;;7323718;32;20333;-58
2023/05/30 10:58:37;;;;;;;14.50;4.70;;;19.50;96.60;;;;;;7310641;32;20131;-57
2023/05/30 11:02:39;;;;;;;11.25;3.92;;;18.90;97.70;;;;;;7329611;32;20148;-63
2023/05/30 11:06:45;;;;;;;13.40;4.53;;;19.50;96.40;;;;;;7332351;32;20095;-64
2023/05/30 11:10:55;;;;;;;10.32;3.72;;;19.30;94.80;;;;;;7308049;32;20253;-63
2023/05/30 11:14:59;;;;;;;9.40;3.87;;;20.00;94.50;;;;;;7327964;32;20099;-64
2023/05/30 11:19:11;;;;;;;10.55;4.65;;;19.40;92.80;;;;;;7322587;32;20135;-64
2023/05/30 11:23:13;;;;;;;11.90;4.53;;;19.30;91.90;;;;;;7331454;32;20283;-63
2023/05/30 11:27:15;;;;;;;11.50;4.55;;;20.10;94.00;;;;;;7334976;32;20176;-63
2023/05/30 11:31:19;;;;;;;9.07;3.87;;;19.50;92.20;;;;;;7331052;32;20176;-64
2023/05/30 11:35:22;;;;;;;11.23;3.90;;;20.20;94.50;;;;;;7340443;32;20123;-63
2023/05/30 11:39:24;;;;;;;9.93;3.65;;;20.20;92.00;;;;;;7327824;32;20107;-64
2023/05/30 11:43:26;;;;;;;9.50;3.85;;;20.20;90.00;;;;;;7329499;32;20103;-62
2023/05/30 11:47:27;;;;;;;11.02;4.55;;;20.40;89.50;;;;;;7327808;32;20744;-62
2023/05/30 11:51:32;;;;;;;12.05;4.15;;;20.20;90.00;;;;;;7313633;32;20124;-64
2023/05/30 11:55:34;;;;;;;13.62;3.55;;;20.40;90.60;;;;;;7329451;32;20255;-65
2023/05/30 11:59:40;;;;;;;7.87;3.53;;;21.50;90.70;;;;;;7336032;32;20111;-63
2023/05/30 12:03:46;;;;;;;7.68;3.70;;;21.80;89.00;;;;;;7322815;32;20100;-64
2023/05/30 12:07:52;;;;;;;9.68;3.60;;;22.80;82.30;;;;;;7328041;32;20095;-64
2023/05/30 12:11:57;;;;;;;7.57;3.03;;;22.60;82.90;;;;;;7331341;32;20292;-63
2023/05/30 12:16:00;;;;;;;9.95;3.55;;;23.10;83.00;;;;;;7329466;32;20710;-65
2023/05/30 12:20:09;;;;;;;12.77;3.90;;;23.90;80.00;;;;;;7326873;32;22233;-64
2023/05/30 12:24:13;;;;;;;8.20;4.32;;;23.40;73.40;;;;;;7326544;32;20121;-63
2023/05/30 12:28:15;;;;;;;12.68;3.90;;;23.50;75.20;;;;;;7317692;32;20209;-64
2023/05/30 12:32:28;;;;;;;7.93;3.87;;;24.40;76.10;;;;;;7325416;32;20214;-63
2023/05/30 12:36:33;;;;;;;11.18;3.50;;;25.40;77.10;;;;;;7326524;32;20639;-63
2023/05/30 12:40:34;;;;;;;11.32;3.95;;;25.10;71.20;;;;;;7325743;32;20222;-58
2023/05/30 12:44:48;;;;;;;12.43;4.15;;;25.40;70.20;;;;;;7322555;32;20269;-59
2023/05/30 12:48:50;;;;;;;11.27;3.60;;;24.00;69.60;;;;;;7330886;32;20568;-58
2023/05/30 12:52:51;;;;;;;11.02;4.37;;;23.90;71.30;;;;;;7326445;32;20143;-59
2023/05/30 12:56:53;;;;;;;10.10;4.25;;;22.50;75.40;;;;;;7329950;32;20104;-58
2023/05/30 13:00:55;;;;;;;10.57;3.83;;;22.80;74.30;;;;;;7332900;32;20103;-59
2023/05/30 13:04:57;;;;;;;9.20;4.05;;;22.90;77.40;;;;;;7327266;32;20509;-58
2023/05/30 13:08:58;;;;;;;11.20;3.83;;;23.00;72.50;;;;;;7338138;32;20766;-58
2023/05/30 13:13:00;;;;;;;10.38;4.20;;;22.40;79.20;;;;;;7335168;32;20516;-57
2023/05/30 13:17:06;;;;;;;8.63;3.65;;;21.70;80.80;;;;;;7333604;32;20131;-58
2023/05/30 13:21:08;;;;;;;8.25;4.10;;;23.10;82.10;;;;;;7341273;32;20095;-57
2023/05/30 13:25:10;;;;;;;15.52;3.90;;;22.50;78.80;;;;;;7330992;32;20552;-58
2023/05/30 13:29:12;;;;;;;9.70;4.20;;;22.60;78.50;;;;;;7340641;32;20185;-58
2023/05/30 13:33:14;;;;;;;8.60;4.00;;;21.10;81.10;;;;;;7335175;32;20565;-58
2023/05/30 13:37:17;;;;;;;8.55;4.15;;;21.20;84.40;;;;;;7319055;32;20767;-58
2023/05/30 13:41:25;;;;;;;9.27;3.95;;;21.30;83.00;;;;;;7318728;32;20095;-56
2023/05/30 13:45:27;;;;;;;9.25;4.25;;;21.20;83.50;;;;;;7336336;32;20194;-58
2023/05/30 13:49:32;;;;;;;8.23;3.40;;;21.00;84.60;;;;;;7328008;32;20525;-56
2023/05/30 13:53:35;;;;;;;7.75;3.22;;;22.00;84.40;;;;;;7335699;32;20098;-57
2023/05/30 13:57:40;;;;;;;6.93;3.50;;;22.40;81.00;;;;;;7323795;32;20147;-57
2023/05/30 14:01:42;;;;;;;9.80;3.40;;;21.90;82.60;;;;;;7337622;32;20165;-56
2023/05/30 14:05:44;;;;;;;13.77;3.95;;;22.70;81.50;;;;;;7330146;32;20134;-58
2023/05/30 14:09:46;;;;;;;8.07;3.50;;;23.20;78.50;;;;;;7334925;32;20150;-57
2023/05/30 14:13:48;;;;;;;9.40;3.58;;;23.10;77.80;;;;;;7330856;32;20747;-58
2023/05/30 14:17:51;;;;;;;9.55;3.75;;;23.30;75.00;;;;;;7320805;32;20130;-57
2023/05/30 14:21:52;;;;;;;9.52;3.35;;;23.10;76.30;;;;;;7330355;32;20179;-58
2023/05/30 14:25:54;;;;;;;12.45;7.03;;;22.90;79.10;;;;;;7331766;32;20137;-57
2023/05/30 14:29:56;;;;;;;9.68;3.35;;;24.20;77.60;;;;;;7327615;32;20100;-58
2023/05/30 14:33:58;;;;;;;9.18;3.28;;;25.20;74.20;;;;;;7316243;32;20185;-58
2023/05/30 14:38:00;;;;;;;9.45;3.78;;;25.50;70.10;;;;;;7328824;32;20182;-57
2023/05/30 14:42:02;;;;;;;8.48;2.90;;;24.50;69.60;;;;;;7319547;32;20863;-58
2023/05/30 14:46:05;;;;;;;7.78;3.70;;;24.10;75.40;;;;;;7324292;32;20099;-58
2023/05/30 14:50:07;;;;;;;17.80;9.63;;;24.80;73.10;;;;;;7329962;32;20130;-57
2023/05/30 14:54:09;;;;;;;8.05;2.97;;;25.20;71.00;;;;;;7328281;32;20641;-58
2023/05/30 14:58:11;;;;;;;10.07;3.37;;;26.00;69.80;;;;;;7324898;32;20104;-58
2023/05/30 15:02:13;;;;;;;12.63;3.75;;;26.40;69.50;;;;;;7340471;32;20223;-59
2023/05/30 15:06:16;;;;;;;8.90;3.10;;;26.10;69.50;;;;;;7338253;32;20223;-59
2023/05/30 15:10:18;;;;;;;8.75;2.90;;;25.90;68.80;;;;;;7329738;32;20132;-59
2023/05/30 15:14:20;;;;;;;11.45;3.42;;;26.30;67.60;;;;;;7315845;32;20135;-58
2023/05/30 15:18:22;;;;;;;8.93;3.20;;;25.40;67.40;;;;;;7327121;32;20100;-58
2023/05/30 15:22:24;;;;;;;8.93;3.75;;;23.60;71.50;;;;;;7328762;32;20220;-58
2023/05/30 15:26:27;;;;;;;11.85;3.62;;;21.90;76.70;;;;;;7326167;32;20803;-58
2023/05/30 15:30:28;;;;;;;9.07;3.47;;;21.20;79.70;;;;;;7307248;32;20124;-58
2023/05/30 15:34:30;;;;;;;11.00;3.58;;;21.20;87.30;;;;;;7321833;32;20305;-58
2023/05/30 15:38:32;;;;;;;9.48;3.85;;;20.80;85.40;;;;;;7332679;32;20193;-57
2023/05/30 15:42:34;;;;;;;12.60;3.37;;;20.90;88.80;;;;;;7302505;32;20111;-59
2023/05/30 15:46:38;;;;;;;8.30;3.80;;;20.80;87.90;;;;;;7319606;32;20212;-59
2023/05/30 15:50:40;;;;;;;10.23;3.53;;;20.20;89.10;;;;;;7319370;32;20280;-58
2023/05/30 15:54:41;;;;;;;8.75;3.53;;;20.10;90.60;;;;;;7320206;32;20119;-58
2023/05/30 15:58:43;;;;;;;11.20;3.12;;;20.20;91.50;;;;;;7319211;32;20558;-59
2023/05/30 16:02:45;;;;;;;10.55;3.20;;;20.30;91.70;;;;;;7332809;32;20150;-58
2023/05/30 16:06:47;;;;;;;10.15;3.78;;;20.30;91.60;;;;;;7327236;32;20100;-58
2023/05/30 16:10:49;;;;;;;8.73;3.25;;;20.10;91.90;;;;;;7319408;32;20962;-58
2023/05/30 16:14:51;;;;;;;7.80;3.58;;;20.20;92.20;;;;;;7330511;32;20218;-58
2023/05/30 16:18:53;;;;;;;10.85;3.53;;;20.10;93.20;;;;;;7310699;32;20633;-59
2023/05/30 16:22:57;;;;;;;7.47;3.30;;;19.90;93.20;;;;;;7325740;32;20263;-58
2023/05/30 16:26:59;;;;;;;8.27;3.12;;;19.90;93.60;;;;;;7321412;32;20121;-58
2023/05/30 16:31:00;;;;;;;14.10;3.25;;;19.80;94.60;;;;;;7323465;32;20104;-54
2023/05/30 16:35:03;;;;;;;10.45;3.30;;;19.70;94.70;;;;;;7328368;32;20122;-54
2023/05/30 16:39:08;;;;;;;9.40;3.33;;;19.90;95.20;;;;;;7320263;32;20179;-58
2023/05/30 16:43:11;;;;;;;7.05;3.40;;;19.70;95.50;;;;;;7311935;32;20667;-58
2023/05/30 16:47:12;;;;;;;6.87;3.30;;;19.60;95.50;;;;;;7316634;32;20654;-57
2023/05/30 16:51:14;;;;;;;7.82;3.35;;;19.60;95.00;;;;;;7316305;32;20127;-59
2023/05/30 16:55:16;;;;;;;9.40;3.10;;;19.70;95.80;;;;;;7314681;32;20692;-57
2023/05/30 16:59:18;;;;;;;8.68;4.55;;;19.60;96.50;;;;;;7316421;32;20187;-58
2023/05/30 17:03:20;;;;;;;5.47;2.75;;;19.60;96.70;;;;;;7315620;32;20722;-59
2023/05/30 17:07:22;;;;;;;13.05;3.60;;;19.60;96.70;;;;;;7315097;32;20816;-57
2023/05/30 17:11:25;;;;;;;11.15;3.20;;;19.40;96.70;;;;;;7315185;32;20111;-58
2023/05/30 17:15:27;;;;;;;10.60;3.45;;;19.40;97.40;;;;;;7315368;32;20233;-57
2023/05/30 17:19:28;;;;;;;12.20;3.58;;;19.50;97.70;;;;;;7317049;32;20111;-56
2023/05/30 17:23:31;;;;;;;8.52;3.22;;;19.30;96.50;;;;;;7305090;32;20190;-56
2023/05/30 17:27:33;;;;;;;9.27;3.58;;;19.20;97.60;;;;;;7316377;32;20143;-58
2023/05/30 17:31:35;;;;;;;8.85;3.40;;;19.20;98.80;;;;;;7315421;32;20103;-55
2023/05/30 17:35:37;;;;;;;7.20;3.25;;;19.10;98.70;;;;;;7304914;32;20186;-57
2023/05/30 17:39:39;;;;;;;9.40;3.40;;;19.20;99.20;;;;;;7306657;32;20256;-55
2023/05/30 17:43:41;;;;;;;11.35;3.60;;;19.10;99.50;;;;;;7318873;32;20217;-55
2023/05/30 17:47:44;;;;;;;8.57;3.90;;;19.10;99.90;;;;;;7312849;32;20173;-54
2023/05/30 17:51:46;;;;;;;6.15;3.40;;;18.90;99.90;;;;;;7316624;32;20188;-54
2023/05/30 17:55:48;;;;;;;5.00;2.58;;;18.90;99.90;;;;;;7323518;32;20459;-54
2023/05/30 17:59:50;;;;;;;5.32;2.60;;;18.80;99.90;;;;;;7327158;32;20131;-54
2023/05/30 18:03:52;;;;;;;9.70;2.83;;;18.80;99.90;;;;;;7326622;32;20226;-55
2023/05/30 18:07:54;;;;;;;11.18;3.00;;;18.70;99.90;;;;;;7323764;32;20134;-55
2023/05/30 18:11:56;;;;;;;7.70;2.97;;;18.70;99.90;;;;;;7316902;32;20103;-57
2023/05/30 18:15:58;;;;;;;4.37;2.53;;;18.70;99.90;;;;;;7316776;32;20307;-55
2023/05/30 18:20:05;;;;;;;6.62;2.90;;;18.40;99.90;;;;;;7315226;32;20221;-56
2023/05/30 18:24:07;;;;;;;8.13;3.03;;;18.30;99.90;;;;;;7307974;32;20206;-56
2023/05/30 18:28:09;;;;;;;8.48;3.37;;;18.20;99.90;;;;;;7314978;32;20168;-56
2023/05/30 18:32:12;;;;;;;7.78;3.10;;;18.10;99.90;;;;;;7325954;32;20234;-56
2023/05/30 18:36:14;;;;;;;7.72;3.10;;;17.90;99.90;;;;;;7324377;32;20332;-56
2023/05/30 18:40:15;;;;;;;6.55;3.35;;;17.90;99.90;;;;;;7320525;32;20464;-56
2023/05/30 18:44:20;;;;;;;7.12;3.10;;;17.80;99.90;;;;;;7323092;32;20801;-54
2023/05/30 18:48:22;;;;;;;5.80;3.40;;;17.60;99.90;;;;;;7328209;32;20095;-55
2023/05/30 18:52:41;;;;;;;11.25;4.25;;;17.50;99.90;;;;;;7323175;32;20686;-55
2023/05/30 18:56:42;;;;;;;6.47;4.37;;;17.20;99.90;;;;;;7320508;32;20207;-54
2023/05/30 19:00:44;;;;;;;9.40;4.07;;;17.00;99.90;;;;;;7318856;32;20736;-56
2023/05/30 19:04:46;;;;;;;7.70;4.30;;;16.90;99.90;;;;;;7315373;32;20189;-56
2023/05/30 19:08:50;;;;;;;7.00;3.87;;;16.90;99.90;;;;;;7316815;32;20127;-56
2023/05/30 19:12:52;;;;;;;6.05;4.00;;;16.60;99.90;;;;;;7329308;32;20220;-56
2023/05/30 19:16:54;;;;;;;6.90;4.50;;;16.50;99.90;;;;;;7331901;32;20119;-56
2023/05/30 19:20:56;;;;;;;7.22;4.22;;;16.30;99.90;;;;;;7325797;32;20241;-56
2023/05/30 19:24:58;;;;;;;5.85;4.12;;;16.20;99.90;;;;;;7325583;32;20156;-56
2023/05/30 19:29:00;;;;;;;8.20;4.87;;;16.20;99.90;;;;;;7326889;32;20103;-55
2023/05/30 19:33:03;;;;;;;5.35;4.65;;;16.00;99.90;;;;;;7325468;32;22221;-56
2023/05/30 19:37:05;;;;;;;6.85;4.53;;;15.90;99.90;;;;;;7326523;32;20107;-56
2023/05/30 19:41:07;;;;;;;6.97;4.93;;;15.70;99.90;;;;;;7330485;32;20095;-56
2023/05/30 19:45:09;;;;;;;6.72;4.78;;;15.60;99.90;;;;;;7310670;32;20122;-56
2023/05/30 19:49:11;;;;;;;7.25;5.40;;;15.50;99.90;;;;;;7326028;32;20108;-55
2023/05/30 19:53:13;;;;;;;9.68;5.70;;;15.40;99.90;;;;;;7320139;32;20170;-56
2023/05/30 19:57:16;;;;;;;9.50;5.40;;;15.20;99.90;;;;;;7333709;32;20114;-55
2023/05/30 20:01:18;;;;;;;10.30;5.90;;;15.20;99.90;;;;;;7306337;32;20126;-55
2023/05/30 20:05:20;;;;;;;7.57;5.53;;;15.10;99.90;;;;;;7318664;32;20160;-54
2023/05/30 20:09:21;;;;;;;9.23;6.10;;;15.00;99.90;;;;;;7331288;32;20229;-55
2023/05/30 20:13:23;;;;;;;10.35;5.95;;;14.90;99.90;;;;;;7325708;32;20100;-56
2023/05/30 20:17:25;;;;;;;7.93;5.90;;;14.90;99.90;;;;;;7329717;32;20149;-55
2023/05/30 20:21:28;;;;;;;6.95;6.25;;;14.80;99.90;;;;;;7331909;32;20227;-55
2023/05/30 20:25:30;;;;;;;7.37;6.30;;;14.70;99.90;;;;;;7328265;32;20190;-54
2023/05/30 20:29:32;;;;;;;6.68;5.30;;;14.60;99.90;;;;;;7322215;32;20202;-55
2023/05/30 20:33:33;;;;;;;8.25;6.07;;;14.50;99.90;;;;;;7322361;32;20183;-56
2023/05/30 20:37:35;;;;;;;7.85;6.45;;;14.50;99.90;;;;;;7321587;32;20168;-55
2023/05/30 20:41:37;;;;;;;12.18;6.72;;;14.50;99.90;;;;;;7324684;32;20163;-56
2023/05/30 20:45:39;;;;;;;8.65;6.25;;;14.30;99.90;;;;;;7303475;32;20303;-55
2023/05/30 20:49:42;;;;;;;10.25;6.15;;;14.30;99.90;;;;;;7322790;32;20123;-54
2023/05/30 20:53:44;;;;;;;6.40;5.47;;;14.30;99.90;;;;;;7323947;32;20148;-55
2023/05/30 20:57:46;;;;;;;10.07;5.97;;;14.30;99.90;;;;;;7320136;32;20099;-56